Time;durP1;ratioP1;P1;durP2;ratioP2;P2;SDS_P1;SDS_P2;PMS_P1;PMS_P2;Temp;Humidity;BMP_temperature;BMP_pressure;BME280_temperature;BME280_humidity;BME280_pressure;Samples;Min_cycle;Max_cycle;Signal;HPM_P1;HPM_P2
2022/04/21 00:00:52;;;;;;;8.40;5.93;;;10.70;60.90;;;;;;4886428;29;20060;-81
2022/04/21 00:03:19;;;;;;;8.77;6.43;;;10.70;61.00;;;;;;4885143;29;20045;-81
2022/04/21 00:05:46;;;;;;;10.48;6.70;;;10.60;61.10;;;;;;4881798;29;20056;-80
2022/04/21 00:08:16;;;;;;;11.25;6.55;;;10.60;61.20;;;;;;4884193;29;20464;-81
2022/04/21 00:10:44;;;;;;;9.18;5.95;;;10.60;61.20;;;;;;4886383;29;20057;-80
2022/04/21 00:13:11;;;;;;;10.07;6.95;;;10.60;61.30;;;;;;4886117;29;20084;-80
2022/04/21 00:15:39;;;;;;;8.70;6.50;;;10.50;61.40;;;;;;4885488;29;20052;-79
2022/04/21 00:18:06;;;;;;;10.93;6.07;;;10.50;61.40;;;;;;4883219;29;20049;-79
2022/04/21 00:20:34;;;;;;;9.07;6.10;;;10.50;61.40;;;;;;4881596;29;20057;-81
2022/04/21 00:25:46;;;;;;;9.68;6.05;;;10.40;61.50;;;;;;4886682;29;20392;-80
2022/04/21 00:28:13;;;;;;;10.30;6.28;;;10.40;61.60;;;;;;4885934;29;20049;-80
2022/04/21 00:30:40;;;;;;;10.45;6.35;;;10.40;61.60;;;;;;4886127;29;20044;-80
2022/04/21 00:33:07;;;;;;;9.40;6.40;;;10.40;61.70;;;;;;4883067;29;20112;-79
2022/04/21 00:35:34;;;;;;;9.48;6.35;;;10.30;61.80;;;;;;4881733;29;20101;-80
2022/04/21 00:38:01;;;;;;;9.23;7.07;;;10.30;61.90;;;;;;4885272;29;20053;-79
2022/04/21 00:40:30;;;;;;;9.27;6.20;;;10.30;61.90;;;;;;4886033;29;20112;-79
2022/04/21 00:42:58;;;;;;;8.30;6.35;;;10.20;62.00;;;;;;4886035;29;20483;-79
2022/04/21 00:45:26;;;;;;;9.07;6.15;;;10.20;62.00;;;;;;4885474;29;20052;-80
2022/04/21 00:47:55;;;;;;;7.72;6.13;;;10.20;62.00;;;;;;4881144;29;20049;-80
2022/04/21 00:50:44;;;;;;;8.15;6.63;;;10.20;62.10;;;;;;4882687;29;20052;-80
2022/04/21 00:53:11;;;;;;;8.48;6.13;;;10.10;62.10;;;;;;4882542;29;20506;-79
2022/04/21 00:55:39;;;;;;;8.00;6.35;;;10.10;62.20;;;;;;4885973;29;20101;-79
2022/04/21 00:58:07;;;;;;;8.05;6.40;;;10.10;62.20;;;;;;4885791;29;20049;-79
2022/04/21 01:00:35;;;;;;;9.45;6.45;;;10.00;62.20;;;;;;4885929;29;20053;-79
2022/04/21 01:03:04;;;;;;;8.80;6.82;;;10.00;62.30;;;;;;4881893;29;20522;-81
2022/04/21 01:05:34;;;;;;;9.20;7.20;;;10.00;62.30;;;;;;4881678;29;20097;-80
2022/04/21 01:08:05;;;;;;;9.55;7.25;;;10.00;62.30;;;;;;4896097;29;20100;-80
2022/04/21 01:10:36;;;;;;;9.57;6.43;;;9.90;62.40;;;;;;4888365;29;20061;-80
2022/04/21 01:13:06;;;;;;;9.45;6.80;;;9.90;62.50;;;;;;4885472;29;20109;-79
2022/04/21 01:15:34;;;;;;;8.65;6.65;;;9.90;62.50;;;;;;4885838;29;20053;-79
2022/04/21 01:18:01;;;;;;;10.65;6.82;;;9.90;62.50;;;;;;4881612;29;20048;-80
2022/04/21 01:20:27;;;;;;;11.88;6.88;;;9.90;62.50;;;;;;4881662;29;20057;-80
2022/04/21 01:22:55;;;;;;;8.88;7.03;;;9.80;62.60;;;;;;4885567;29;20105;-81
2022/04/21 01:25:22;;;;;;;8.80;6.65;;;9.80;62.60;;;;;;4885478;29;20049;-79
2022/04/21 01:27:56;;;;;;;10.30;6.90;;;9.70;62.60;;;;;;4888533;29;20049;-81
2022/04/21 01:30:23;;;;;;;9.48;7.70;;;9.70;62.60;;;;;;4888321;29;20108;-80
2022/04/21 01:32:51;;;;;;;8.32;6.68;;;9.70;62.70;;;;;;4884376;29;20529;-81
2022/04/21 01:35:18;;;;;;;12.40;8.13;;;9.60;62.70;;;;;;4886214;29;20053;-79
2022/04/21 01:43:16;;;;;;;8.70;7.45;;;9.50;62.90;;;;;;4888833;29;20053;-79
2022/04/21 01:45:44;;;;;;;10.85;8.25;;;9.50;62.90;;;;;;4888375;29;20545;-80
2022/04/21 01:48:11;;;;;;;9.38;7.65;;;9.40;63.00;;;;;;4886369;29;20049;-79
2022/04/21 01:50:38;;;;;;;10.30;7.20;;;9.40;63.00;;;;;;4884523;29;20061;-79
2022/04/21 01:53:05;;;;;;;11.35;7.47;;;9.40;63.00;;;;;;4887306;29;20112;-79
2022/04/21 01:55:32;;;;;;;11.07;7.75;;;9.40;63.20;;;;;;4888680;29;20105;-80
2022/04/21 01:57:59;;;;;;;10.82;8.20;;;9.40;63.20;;;;;;4888542;29;20098;-80
2022/04/21 02:00:26;;;;;;;10.50;7.85;;;9.30;63.20;;;;;;4887941;29;20052;-80
2022/04/21 02:02:52;;;;;;;10.25;7.88;;;9.30;63.30;;;;;;4884080;29;20093;-80
2022/04/21 02:05:20;;;;;;;9.77;8.02;;;9.30;63.30;;;;;;4885190;29;20471;-80
2022/04/21 02:07:47;;;;;;;9.82;7.82;;;9.30;63.40;;;;;;4888466;29;20124;-79
2022/04/21 02:10:16;;;;;;;14.27;8.13;;;9.20;63.40;;;;;;4888462;29;20057;-79
2022/04/21 02:12:44;;;;;;;9.93;7.70;;;9.20;63.40;;;;;;4888198;29;20052;-79
2022/04/21 02:15:11;;;;;;;10.75;7.95;;;9.20;63.50;;;;;;4885738;29;20057;-79
2022/04/21 02:17:39;;;;;;;10.55;8.20;;;9.10;63.50;;;;;;4883894;29;20056;-79
2022/04/21 02:20:09;;;;;;;10.70;7.75;;;9.20;63.50;;;;;;4886948;29;20057;-79
2022/04/21 02:22:36;;;;;;;9.50;7.97;;;9.10;63.60;;;;;;4888032;29;20049;-79
2022/04/21 02:25:08;;;;;;;9.07;7.95;;;9.10;63.60;;;;;;4888053;29;20122;-79
2022/04/21 02:27:37;;;;;;;10.65;8.13;;;9.00;63.70;;;;;;4888159;29;20048;-79
2022/04/21 02:30:05;;;;;;;10.60;7.70;;;9.00;63.70;;;;;;4884502;29;20044;-80
2022/04/21 02:32:32;;;;;;;9.48;7.82;;;8.90;63.70;;;;;;4883863;29;20426;-78
2022/04/21 02:34:59;;;;;;;8.90;7.40;;;8.90;63.80;;;;;;4898085;29;20053;-80
2022/04/21 02:37:26;;;;;;;10.77;7.53;;;8.90;63.80;;;;;;4890739;29;20105;-79
2022/04/21 02:39:53;;;;;;;9.73;7.40;;;8.90;63.80;;;;;;4887327;29;20407;-79
2022/04/21 02:42:20;;;;;;;11.52;7.88;;;8.90;63.90;;;;;;4886711;29;20108;-79
2022/04/21 02:44:48;;;;;;;13.52;8.70;;;8.90;63.90;;;;;;4882921;29;20065;-78
2022/04/21 02:47:16;;;;;;;9.38;7.88;;;8.90;63.90;;;;;;4885317;29;20061;-81
2022/04/21 02:49:47;;;;;;;10.57;8.52;;;8.90;64.00;;;;;;4887636;29;21061;-81
2022/04/21 02:52:14;;;;;;;9.68;8.45;;;8.80;64.00;;;;;;4887508;29;20057;-80
2022/04/21 02:57:30;;;;;;;10.85;8.25;;;8.70;64.20;;;;;;4887263;29;20040;-79
2022/04/21 02:59:59;;;;;;;10.80;9.10;;;8.70;64.20;;;;;;4883054;29;20054;-79
2022/04/21 03:02:26;;;;;;;12.75;9.25;;;8.70;64.20;;;;;;4895087;29;20055;-79
2022/04/21 03:04:54;;;;;;;16.20;9.02;;;8.70;64.20;;;;;;4897943;29;20060;-79
2022/04/21 03:07:22;;;;;;;13.23;8.88;;;8.60;64.20;;;;;;4891368;29;20132;-79
2022/04/21 03:09:50;;;;;;;10.35;8.45;;;8.60;64.30;;;;;;4887415;29;20053;-80
2022/04/21 03:12:17;;;;;;;13.98;8.90;;;8.50;64.30;;;;;;4885622;29;20430;-80
2022/04/21 03:14:44;;;;;;;13.98;9.45;;;8.50;64.40;;;;;;4882541;29;20117;-80
2022/04/21 03:17:11;;;;;;;9.82;8.70;;;8.50;64.40;;;;;;4885242;29;20049;-79
2022/04/21 03:19:38;;;;;;;11.77;8.68;;;8.50;64.40;;;;;;4887108;29;20053;-80
2022/04/21 03:24:53;;;;;;;11.30;9.07;;;8.40;64.60;;;;;;4887029;29;20049;-81
2022/04/21 03:27:20;;;;;;;10.90;8.98;;;8.40;64.60;;;;;;4885529;29;20048;-80
2022/04/21 03:29:47;;;;;;;11.95;8.73;;;8.40;64.70;;;;;;4882525;29;20060;-80
2022/04/21 03:32:14;;;;;;;11.57;8.90;;;8.40;64.70;;;;;;4884792;29;20105;-80
2022/04/21 03:34:42;;;;;;;11.90;8.13;;;8.30;64.80;;;;;;4886787;29;20101;-79
2022/04/21 03:37:13;;;;;;;10.40;8.60;;;8.30;64.80;;;;;;4886876;29;20533;-80
2022/04/21 03:39:41;;;;;;;12.38;8.98;;;8.30;64.80;;;;;;4886531;29;20060;-80
2022/04/21 03:42:23;;;;;;;10.88;8.38;;;8.30;64.90;;;;;;4883740;29;20044;-79
2022/04/21 03:44:51;;;;;;;10.75;8.48;;;8.30;64.90;;;;;;4882233;29;20104;-79
2022/04/21 03:47:18;;;;;;;10.70;8.02;;;8.20;64.90;;;;;;4883805;29;20061;-80
2022/04/21 03:49:45;;;;;;;10.05;8.20;;;8.20;64.90;;;;;;4886628;29;20064;-80
2022/04/21 03:52:13;;;;;;;10.68;8.40;;;8.20;64.90;;;;;;4886388;29;20048;-80
2022/04/21 03:54:40;;;;;;;12.32;8.68;;;8.20;64.90;;;;;;4886561;29;20104;-80
2022/04/21 03:57:08;;;;;;;10.38;8.38;;;8.10;65.00;;;;;;4883580;29;20111;-79
2022/04/21 03:59:35;;;;;;;12.90;8.60;;;8.10;65.00;;;;;;4882188;29;20426;-79
2022/04/21 04:02:04;;;;;;;9.45;8.45;;;8.10;65.00;;;;;;4885380;29;20049;-80
2022/04/21 04:04:33;;;;;;;12.63;8.75;;;8.10;65.00;;;;;;4886284;29;20045;-80
2022/04/21 04:12:35;;;;;;;11.30;8.43;;;8.00;65.20;;;;;;4885861;29;20064;-79
2022/04/21 04:15:05;;;;;;;10.68;8.10;;;7.90;65.20;;;;;;4882800;29;20100;-79
2022/04/21 04:17:32;;;;;;;11.23;8.43;;;7.90;65.30;;;;;;4881759;29;20049;-79
2022/04/21 04:19:59;;;;;;;9.80;8.48;;;7.90;65.30;;;;;;4896330;29;20434;-81
2022/04/21 04:22:27;;;;;;;14.65;9.13;;;7.90;65.40;;;;;;4889482;29;20057;-79
2022/04/21 04:24:55;;;;;;;9.90;8.40;;;7.80;65.50;;;;;;4885891;29;20059;-80
2022/04/21 04:27:23;;;;;;;10.52;8.50;;;7.80;65.60;;;;;;4885207;29;20122;-80
2022/04/21 04:29:50;;;;;;;10.90;9.05;;;7.80;65.60;;;;;;4881731;29;20056;-80
2022/04/21 04:32:17;;;;;;;13.50;9.15;;;7.70;65.70;;;;;;4883711;29;20049;-80
2022/04/21 04:34:44;;;;;;;11.85;9.20;;;7.70;65.80;;;;;;4886168;29;20101;-80
2022/04/21 04:37:11;;;;;;;13.15;9.73;;;7.70;65.90;;;;;;4886102;29;20045;-81
2022/04/21 04:39:38;;;;;;;15.35;8.48;;;7.70;65.90;;;;;;4885705;29;20454;-81
2022/04/21 04:42:17;;;;;;;10.63;8.98;;;7.70;66.00;;;;;;4882769;29;20055;-81
2022/04/21 04:44:45;;;;;;;11.63;9.25;;;7.70;66.10;;;;;;4881722;29;20060;-80
2022/04/21 04:47:13;;;;;;;11.75;8.98;;;7.70;66.20;;;;;;4883937;29;20124;-80
2022/04/21 04:49:40;;;;;;;11.15;8.52;;;7.60;66.20;;;;;;4886053;29;20069;-80
2022/04/21 04:52:07;;;;;;;13.27;8.77;;;7.60;66.20;;;;;;4885714;29;20077;-80
2022/04/21 04:54:34;;;;;;;10.52;8.48;;;7.60;66.20;;;;;;4885694;29;20110;-79
2022/04/21 04:57:01;;;;;;;11.40;8.77;;;7.60;66.30;;;;;;4882083;29;20108;-81
2022/04/21 04:59:29;;;;;;;14.30;8.90;;;7.50;66.30;;;;;;4891462;29;20103;-79
2022/04/21 05:01:57;;;;;;;10.65;8.75;;;7.50;66.40;;;;;;4897618;29;20124;-81
2022/04/21 05:04:24;;;;;;;13.82;8.65;;;7.50;66.40;;;;;;4899834;29;20112;-81
2022/04/21 05:06:54;;;;;;;11.77;9.13;;;7.50;66.40;;;;;;4897008;29;20053;-80
2022/04/21 05:09:23;;;;;;;13.48;9.32;;;7.50;66.50;;;;;;4887819;29;20055;-80
2022/04/21 05:11:52;;;;;;;10.82;8.80;;;7.50;66.50;;;;;;4889255;29;20053;-78
2022/04/21 05:14:23;;;;;;;11.75;8.93;;;7.50;66.50;;;;;;4899452;29;20064;-79
2022/04/21 05:16:51;;;;;;;10.65;8.60;;;7.50;66.60;;;;;;4889925;29;20053;-82
2022/04/21 05:19:20;;;;;;;13.32;8.55;;;7.40;66.60;;;;;;4893469;29;20506;-81
2022/04/21 05:21:48;;;;;;;11.07;8.45;;;7.40;66.70;;;;;;4888788;29;20494;-81
2022/04/21 05:24:16;;;;;;;14.15;8.98;;;7.50;66.70;;;;;;4886770;29;20061;-80
2022/04/21 05:26:45;;;;;;;11.82;7.95;;;7.40;66.80;;;;;;4908855;29;20052;-82
2022/04/21 05:32:01;;;;;;;14.75;8.90;;;7.40;66.90;;;;;;4888375;29;20475;-79
2022/04/21 05:34:30;;;;;;;12.65;9.43;;;7.40;66.90;;;;;;4888879;29;20088;-80
2022/04/21 05:36:58;;;;;;;11.63;9.20;;;7.40;67.00;;;;;;4888309;29;20509;-80
2022/04/21 05:39:27;;;;;;;12.07;8.85;;;7.40;67.00;;;;;;4887834;29;20533;-80
2022/04/21 05:41:57;;;;;;;15.45;10.15;;;7.40;67.00;;;;;;4884267;29;20055;-79
2022/04/21 05:44:25;;;;;;;11.68;9.68;;;7.50;67.10;;;;;;4895519;29;20068;-80
2022/04/21 05:46:52;;;;;;;17.92;9.52;;;7.40;67.10;;;;;;4888580;29;20125;-80
2022/04/21 05:49:19;;;;;;;10.95;8.95;;;7.50;67.20;;;;;;4888675;29;20499;-82
2022/04/21 05:51:48;;;;;;;13.32;10.75;;;7.40;67.20;;;;;;4888259;29;20060;-81
2022/04/21 05:54:15;;;;;;;13.68;10.75;;;7.40;67.30;;;;;;4886615;29;20105;-81
2022/04/21 05:56:43;;;;;;;18.30;11.32;;;7.40;67.40;;;;;;4883909;29;20116;-80
2022/04/21 05:59:10;;;;;;;14.50;11.23;;;7.40;67.50;;;;;;4886246;29;20396;-80
2022/04/21 06:01:38;;;;;;;17.17;11.27;;;7.40;67.50;;;;;;4888319;29;20511;-81
2022/04/21 06:04:05;;;;;;;17.55;12.07;;;7.50;67.70;;;;;;4888253;29;20049;-80
2022/04/21 06:06:32;;;;;;;15.18;11.82;;;7.50;67.70;;;;;;4888833;29;20049;-80
2022/04/21 06:08:59;;;;;;;16.70;12.45;;;7.50;67.80;;;;;;4884276;29;20055;-80
2022/04/21 06:11:25;;;;;;;16.38;11.75;;;7.50;67.90;;;;;;4884566;29;20399;-79
2022/04/21 06:13:52;;;;;;;16.08;11.60;;;7.50;68.00;;;;;;4886647;29;20053;-80
2022/04/21 06:16:19;;;;;;;15.48;11.98;;;7.50;68.10;;;;;;4887944;29;20583;-79
2022/04/21 06:18:46;;;;;;;13.77;11.52;;;7.60;68.20;;;;;;4887576;29;20045;-81
2022/04/21 06:21:13;;;;;;;17.17;12.77;;;7.60;68.30;;;;;;4895516;29;20116;-79
2022/04/21 06:23:40;;;;;;;18.98;11.38;;;7.70;68.30;;;;;;4897423;29;20056;-78
2022/04/21 06:26:07;;;;;;;14.65;12.15;;;7.70;68.40;;;;;;4896540;29;20052;-81
2022/04/21 06:28:34;;;;;;;15.93;12.20;;;7.70;68.50;;;;;;4894588;29;20053;-81
2022/04/21 06:31:02;;;;;;;14.80;11.27;;;7.80;68.50;;;;;;4894588;29;20060;-81
2022/04/21 06:33:32;;;;;;;18.17;11.77;;;7.90;68.60;;;;;;4894858;29;20052;-81
2022/04/21 06:36:00;;;;;;;14.50;11.15;;;7.90;68.60;;;;;;4879809;29;20049;-79
2022/04/21 06:38:27;;;;;;;18.92;11.82;;;7.90;68.50;;;;;;4898579;29;20421;-79
2022/04/21 06:40:55;;;;;;;15.02;11.60;;;8.00;68.60;;;;;;4896549;29;20053;-80
2022/04/21 06:48:53;;;;;;;17.88;12.07;;;8.30;68.70;;;;;;4894306;29;20421;-80
2022/04/21 06:51:20;;;;;;;16.13;11.85;;;8.40;68.70;;;;;;4894365;29;20108;-80
2022/04/21 06:53:47;;;;;;;17.35;11.88;;;8.50;68.80;;;;;;4896006;29;20384;-79
2022/04/21 06:56:15;;;;;;;17.70;12.32;;;8.60;68.90;;;;;;4897216;29;20052;-80
2022/04/21 06:58:42;;;;;;;17.52;12.77;;;8.70;69.00;;;;;;4894461;29;20097;-80
2022/04/21 07:01:09;;;;;;;17.50;13.05;;;8.80;69.10;;;;;;4894456;29;20466;-80
2022/04/21 07:03:36;;;;;;;17.73;12.73;;;8.90;69.20;;;;;;4894326;29;20092;-80
2022/04/21 07:06:03;;;;;;;18.15;12.30;;;9.00;69.30;;;;;;4894008;29;20061;-81
2022/04/21 07:08:30;;;;;;;19.48;13.05;;;9.10;69.30;;;;;;4896411;29;20101;-81
2022/04/21 07:10:57;;;;;;;17.20;13.35;;;9.20;69.30;;;;;;4895454;29;20048;-81
2022/04/21 07:13:24;;;;;;;18.13;12.73;;;9.30;69.40;;;;;;4893972;29;20052;-80
2022/04/21 07:15:52;;;;;;;16.35;12.77;;;9.40;69.30;;;;;;4894495;29;20064;-81
2022/04/21 07:18:19;;;;;;;14.70;11.90;;;9.50;69.30;;;;;;4894212;29;20055;-80
2022/04/21 07:20:47;;;;;;;14.10;11.63;;;9.60;69.20;;;;;;4895572;29;20052;-80
2022/04/21 07:23:14;;;;;;;18.75;13.15;;;9.70;69.20;;;;;;4896876;29;20052;-80
2022/04/21 07:25:42;;;;;;;16.10;12.10;;;9.90;69.10;;;;;;4893792;29;20071;-79
2022/04/21 07:28:09;;;;;;;16.30;11.60;;;9.90;69.00;;;;;;4893797;29;20149;-80
2022/04/21 07:30:37;;;;;;;18.38;12.20;;;10.00;68.80;;;;;;4893687;29;20455;-80
2022/04/21 07:33:05;;;;;;;17.83;11.10;;;10.20;68.70;;;;;;4893834;29;20475;-79
2022/04/21 07:35:34;;;;;;;17.95;11.63;;;10.30;68.60;;;;;;4895983;29;20467;-80
2022/04/21 07:38:01;;;;;;;14.75;11.15;;;10.40;68.40;;;;;;4894538;29;20056;-80
2022/04/21 07:40:28;;;;;;;14.20;11.20;;;10.40;68.20;;;;;;4893823;29;20075;-81
2022/04/21 07:42:57;;;;;;;15.95;11.20;;;10.50;68.00;;;;;;4893535;29;20143;-80
2022/04/21 07:45:25;;;;;;;15.57;11.13;;;10.60;67.80;;;;;;4893565;29;20560;-81
2022/04/21 07:47:51;;;;;;;13.18;10.05;;;10.80;67.70;;;;;;4894223;29;20510;-80
2022/04/21 07:50:18;;;;;;;17.13;10.15;;;10.90;67.50;;;;;;4896744;29;20056;-80
2022/04/21 07:53:14;;;;;;;16.25;10.43;;;10.90;67.30;;;;;;4897224;29;20080;-80
2022/04/21 07:55:44;;;;;;;12.27;9.63;;;11.00;67.10;;;;;;4894881;29;20134;-80
2022/04/21 07:58:11;;;;;;;12.90;9.65;;;11.10;66.90;;;;;;4893160;29;20072;-79
2022/04/21 08:00:40;;;;;;;11.07;8.90;;;11.20;66.70;;;;;;4893335;29;20041;-80
2022/04/21 08:03:11;;;;;;;16.67;8.77;;;11.30;66.50;;;;;;4893146;29;20121;-79
2022/04/21 08:05:38;;;;;;;14.13;9.85;;;11.40;66.30;;;;;;4895532;29;20048;-79
2022/04/21 08:08:08;;;;;;;12.68;9.07;;;11.40;66.10;;;;;;4894861;29;20053;-79
2022/04/21 08:10:35;;;;;;;14.43;9.10;;;11.50;65.90;;;;;;4893081;29;20049;-79
2022/04/21 08:13:02;;;;;;;14.40;8.55;;;11.70;65.80;;;;;;4892862;29;20188;-79
2022/04/21 08:15:34;;;;;;;11.98;8.82;;;11.70;65.60;;;;;;4893330;29;20462;-80
2022/04/21 08:18:03;;;;;;;12.02;8.57;;;11.90;65.40;;;;;;4878726;29;20052;-79
2022/04/21 08:20:32;;;;;;;11.55;8.10;;;11.90;65.20;;;;;;4896611;29;20116;-80
2022/04/21 08:23:00;;;;;;;15.23;8.23;;;12.00;65.00;;;;;;4894559;29;20510;-81
2022/04/21 08:34:21;;;;;;;10.73;7.70;;;12.40;64.20;;;;;;4892954;29;20052;-80
2022/04/21 08:36:53;;;;;;;10.32;7.40;;;12.50;64.00;;;;;;4892413;29;20139;-80
2022/04/21 08:39:20;;;;;;;11.80;7.22;;;12.60;63.80;;;;;;4894549;29;20049;-80
2022/04/21 08:41:51;;;;;;;12.93;7.80;;;12.60;63.60;;;;;;4894639;29;20060;-80
2022/04/21 08:44:19;;;;;;;10.30;7.35;;;12.80;63.40;;;;;;4896858;29;20100;-79
2022/04/21 08:46:50;;;;;;;11.93;7.07;;;12.90;63.20;;;;;;4893864;29;20506;-80
2022/04/21 08:49:19;;;;;;;10.95;6.95;;;12.90;63.00;;;;;;4893152;29;20052;-79
2022/04/21 08:51:46;;;;;;;14.05;7.00;;;13.00;62.80;;;;;;4892698;29;20095;-79
2022/04/21 08:54:13;;;;;;;9.20;6.53;;;13.20;62.60;;;;;;4893093;29;20101;-79
2022/04/21 08:56:40;;;;;;;10.45;6.13;;;13.20;62.40;;;;;;4895091;29;20139;-79
2022/04/21 08:59:07;;;;;;;10.00;6.60;;;13.30;62.10;;;;;;4896541;29;20048;-79
2022/04/21 09:01:34;;;;;;;9.13;6.03;;;13.40;61.90;;;;;;4892346;29;20053;-80
2022/04/21 09:04:02;;;;;;;8.43;5.82;;;13.50;61.70;;;;;;4892680;29;20080;-79
2022/04/21 09:06:29;;;;;;;9.60;5.90;;;13.60;61.40;;;;;;4894241;29;20060;-79
2022/04/21 09:09:21;;;;;;;10.38;5.75;;;13.70;61.20;;;;;;4878137;29;20470;-79
2022/04/21 09:11:56;;;;;;;9.85;6.13;;;13.80;60.90;;;;;;4893222;29;20561;-80
2022/04/21 09:14:23;;;;;;;10.07;5.85;;;13.90;60.60;;;;;;4896419;29;20064;-80
2022/04/21 09:16:51;;;;;;;11.40;5.55;;;13.90;60.40;;;;;;4892127;29;20463;-79
2022/04/21 09:19:18;;;;;;;8.52;5.20;;;14.00;60.20;;;;;;4894139;29;20115;-79
2022/04/21 09:21:45;;;;;;;7.68;5.00;;;14.10;59.90;;;;;;4892782;29;20052;-80
2022/04/21 09:24:23;;;;;;;7.53;5.07;;;14.20;59.70;;;;;;4892868;29;20049;-80
2022/04/21 09:26:51;;;;;;;8.07;5.15;;;14.30;59.40;;;;;;4893901;29;20455;-80
2022/04/21 09:29:28;;;;;;;8.07;4.63;;;14.40;59.20;;;;;;4896554;29;20077;-79
2022/04/21 09:31:57;;;;;;;7.70;4.97;;;14.40;59.00;;;;;;4895514;29;20056;-80
2022/04/21 09:34:33;;;;;;;7.90;4.90;;;14.50;58.80;;;;;;4892501;29;20055;-79
2022/04/21 09:37:00;;;;;;;9.63;5.00;;;14.60;58.60;;;;;;4893803;29;20463;-79
2022/04/21 09:39:27;;;;;;;7.47;4.57;;;14.60;58.40;;;;;;4892702;29;20052;-80
2022/04/21 09:41:54;;;;;;;9.20;4.43;;;14.70;58.10;;;;;;4893167;29;20049;-79
2022/04/21 09:47:27;;;;;;;8.10;4.32;;;14.90;57.70;;;;;;4896205;29;20124;-79
2022/04/21 09:49:54;;;;;;;9.65;4.75;;;15.00;57.50;;;;;;4898195;29;20421;-80
2022/04/21 09:52:28;;;;;;;6.40;4.57;;;15.10;57.30;;;;;;4895613;29;20061;-80
2022/04/21 09:54:55;;;;;;;;;;;15.10;57.10;;;;;;4896180;29;20048;-80
2022/04/21 09:57:30;;;;;;;9.63;4.85;;;15.20;57.00;;;;;;4895808;29;19990;-79
2022/04/21 09:59:58;;;;;;;9.07;4.50;;;15.30;56.80;;;;;;4882119;29;20052;-80
2022/04/21 10:02:27;;;;;;;9.63;4.75;;;15.40;56.60;;;;;;4895784;29;20508;-80
2022/04/21 10:04:56;;;;;;;13.18;4.25;;;15.40;56.50;;;;;;4897722;29;20048;-80
2022/04/21 10:07:24;;;;;;;8.07;4.50;;;15.50;56.30;;;;;;4895405;29;20124;-80
2022/04/21 10:09:51;;;;;;;7.95;4.82;;;15.60;56.20;;;;;;4895322;29;20063;-79
2022/04/21 10:12:19;;;;;;;7.75;4.60;;;15.60;56.00;;;;;;4895210;29;20510;-79
2022/04/21 10:14:47;;;;;;;11.23;5.18;;;15.70;55.90;;;;;;4896637;29;20044;-79
2022/04/21 10:17:14;;;;;;;8.73;4.60;;;15.80;55.70;;;;;;4899268;29;20052;-79
2022/04/21 10:19:41;;;;;;;6.90;4.22;;;15.90;55.50;;;;;;4895137;29;20589;-80
2022/04/21 10:22:14;;;;;;;9.27;4.75;;;15.90;55.40;;;;;;4895096;29;20084;-79
2022/04/21 10:24:43;;;;;;;11.55;5.07;;;16.00;55.20;;;;;;4895422;29;20051;-80
2022/04/21 10:27:42;;;;;;;9.27;5.18;;;16.00;55.10;;;;;;4894984;29;20110;-80
2022/04/21 10:30:25;;;;;;;8.40;4.30;;;16.10;55.00;;;;;;4872473;29;20048;-79
2022/04/21 10:32:58;;;;;;;6.95;4.43;;;16.20;54.80;;;;;;4896031;29;20053;-80
2022/04/21 10:35:28;;;;;;;7.73;4.57;;;16.20;54.70;;;;;;4895036;29;20084;-80
2022/04/21 10:38:13;;;;;;;6.55;3.85;;;16.30;54.50;;;;;;4897082;29;20052;-80
2022/04/21 10:41:10;;;;;;;8.43;3.53;;;16.40;54.40;;;;;;4894744;29;20059;-79
2022/04/21 10:43:52;;;;;;;8.63;3.88;;;16.40;54.20;;;;;;4894480;29;20108;-79
2022/04/21 10:46:21;;;;;;;7.03;3.65;;;16.40;54.00;;;;;;4894757;29;20060;-79
2022/04/21 10:48:49;;;;;;;5.53;3.05;;;16.50;53.90;;;;;;4894483;29;20429;-80
2022/04/21 10:57:12;;;;;;;6.35;3.28;;;16.50;53.70;;;;;;4894600;29;20140;-80
2022/04/21 10:57:55;;;;;;;6.78;2.92;;;16.60;53.40;;;;;;4894103;29;20052;-80
2022/04/21 11:00:30;;;;;;;5.68;2.97;;;16.70;53.30;;;;;;4893927;29;20610;-80
2022/04/21 11:03:26;;;;;;;5.60;2.80;;;16.80;53.10;;;;;;4881071;29;20105;-80
2022/04/21 11:06:10;;;;;;;7.82;3.10;;;16.80;52.90;;;;;;4894951;29;20105;-80
2022/04/21 11:08:37;;;;;;;6.18;2.65;;;16.90;52.70;;;;;;4894277;29;20048;-80
2022/04/21 11:11:05;;;;;;;5.95;2.78;;;16.90;52.60;;;;;;4897145;29;20052;-80
2022/04/21 11:14:03;;;;;;;8.70;2.45;;;16.90;52.40;;;;;;4894080;29;20128;-80
2022/04/21 11:16:45;;;;;;;6.97;2.40;;;17.00;52.30;;;;;;4894352;29;20050;-80
2022/04/21 11:19:34;;;;;;;5.07;2.30;;;17.00;52.10;;;;;;4895438;29;20052;-80
2022/04/21 11:22:13;;;;;;;6.05;2.00;;;17.00;52.00;;;;;;4894320;29;20100;-79
2022/04/21 11:24:55;;;;;;;8.75;2.45;;;17.10;51.90;;;;;;4894227;29;20066;-80
2022/04/21 11:27:23;;;;;;;5.05;2.20;;;17.20;51.80;;;;;;4893716;29;20411;-81
2022/04/21 11:29:50;;;;;;;4.88;2.20;;;17.20;51.80;;;;;;4895178;29;20053;-79
2022/04/21 11:32:19;;;;;;;4.28;2.17;;;17.20;51.70;;;;;;4896890;29;20084;-80
2022/04/21 11:35:12;;;;;;;6.20;2.22;;;17.30;51.70;;;;;;4895175;29;20048;-80
2022/04/21 11:37:57;;;;;;;5.07;2.00;;;17.40;51.50;;;;;;4893735;29;20395;-80
2022/04/21 11:40:24;;;;;;;5.20;2.05;;;17.40;51.40;;;;;;4894825;29;20139;-80
2022/04/21 11:42:52;;;;;;;3.92;2.05;;;17.40;51.30;;;;;;4893889;29;20045;-79
2022/04/21 11:45:31;;;;;;;4.15;2.03;;;17.50;51.20;;;;;;4893950;29;20057;-80
2022/04/21 11:47:58;;;;;;;6.10;2.38;;;17.60;51.00;;;;;;4879056;29;20064;-80
2022/04/21 11:50:30;;;;;;;7.00;2.00;;;17.60;50.90;;;;;;4893687;29;20532;-80
2022/04/21 11:52:58;;;;;;;10.00;2.20;;;17.70;50.60;;;;;;4893650;29;20049;-80
2022/04/21 11:55:28;;;;;;;6.90;2.00;;;17.80;50.50;;;;;;4893339;29;20458;-80
2022/04/21 11:57:56;;;;;;;4.63;2.30;;;17.80;50.30;;;;;;4894952;29;20070;-80
2022/04/21 12:08:47;;;;;;;3.15;1.95;;;17.90;49.60;;;;;;4893796;29;20082;-80
2022/04/21 12:11:19;;;;;;;4.93;2.30;;;18.00;49.40;;;;;;4894811;29;20049;-80
2022/04/21 12:13:48;;;;;;;5.72;2.00;;;18.00;49.30;;;;;;4894511;29;20060;-80
2022/04/21 12:16:35;;;;;;;6.18;2.30;;;18.00;49.10;;;;;;4893028;29;20064;-80
2022/04/21 12:19:32;;;;;;;6.43;2.28;;;18.10;49.00;;;;;;4893033;29;20135;-80
2022/04/21 12:22:07;;;;;;;6.65;2.47;;;18.10;48.90;;;;;;4887665;29;20132;-80
2022/04/21 12:24:39;;;;;;;5.82;2.20;;;18.20;48.80;;;;;;4892806;29;20056;-80
2022/04/21 12:27:17;;;;;;;4.72;2.30;;;18.30;48.70;;;;;;4893008;29;20455;-80
2022/04/21 12:29:58;;;;;;;7.93;2.25;;;18.30;48.50;;;;;;4893703;29;20060;-80
2022/04/21 12:32:36;;;;;;;4.50;2.15;;;18.40;48.30;;;;;;4893153;29;20108;-80
2022/04/21 12:35:06;;;;;;;5.57;2.35;;;18.40;48.10;;;;;;4895956;29;20080;-80
2022/04/21 12:37:34;;;;;;;6.57;2.17;;;18.40;47.90;;;;;;4892852;29;20088;-80
2022/04/21 12:40:12;;;;;;;4.65;2.17;;;18.40;47.60;;;;;;4892803;29;20045;-80
2022/04/21 12:42:45;;;;;;;7.72;2.58;;;18.50;47.30;;;;;;4892847;29;20100;-80
2022/04/21 12:45:13;;;;;;;6.03;2.15;;;18.60;47.10;;;;;;4892969;29;20049;-80
2022/04/21 12:47:43;;;;;;;4.78;2.25;;;18.60;46.90;;;;;;4895007;29;20145;-80
2022/04/21 12:50:21;;;;;;;6.35;2.72;;;18.60;46.70;;;;;;4896792;29;20510;-80
2022/04/21 12:52:55;;;;;;;11.00;2.88;;;18.70;46.50;;;;;;4893844;29;20553;-81
2022/04/21 12:55:30;;;;;;;5.90;2.38;;;18.70;46.30;;;;;;4892819;29;20053;-80
2022/04/21 12:58:03;;;;;;;4.95;2.20;;;18.80;46.20;;;;;;4892762;29;20064;-80
2022/04/21 13:00:32;;;;;;;6.50;2.63;;;18.80;46.00;;;;;;4893355;29;20052;-80
2022/04/21 13:03:01;;;;;;;4.88;2.55;;;18.90;45.90;;;;;;4878314;29;20442;-80
2022/04/21 13:05:28;;;;;;;5.50;2.30;;;18.90;45.80;;;;;;4893156;29;20055;-80
2022/04/21 13:07:55;;;;;;;4.45;2.20;;;18.90;45.70;;;;;;4894551;29;20052;-80
2022/04/21 13:10:23;;;;;;;8.23;2.65;;;18.90;45.60;;;;;;4892671;29;20407;-80
2022/04/21 13:12:50;;;;;;;5.85;2.42;;;18.90;45.60;;;;;;4892404;29;20052;-80
2022/04/21 13:15:17;;;;;;;5.32;2.30;;;19.00;45.50;;;;;;4892775;29;20109;-80
2022/04/21 13:17:44;;;;;;;7.93;2.33;;;19.10;45.40;;;;;;4894903;29;20056;-80
2022/04/21 13:21:52;;;;;;;5.75;2.42;;;19.10;45.40;;;;;;4895681;29;20109;-80
2022/04/21 13:23:04;;;;;;;5.45;2.20;;;19.10;45.30;;;;;;4897455;29;20045;-81
2022/04/21 13:25:35;;;;;;;7.38;2.38;;;19.10;45.30;;;;;;4895973;29;20256;-80
2022/04/21 13:28:01;;;;;;;4.60;1.80;;;19.20;45.20;;;;;;4895846;29;20100;-80
2022/04/21 13:30:29;;;;;;;5.15;2.10;;;19.20;45.20;;;;;;4897728;29;20048;-80
2022/04/21 13:35:42;;;;;;;6.30;2.20;;;19.20;45.10;;;;;;4896400;29;20477;-80
2022/04/21 13:38:09;;;;;;;6.60;2.33;;;19.20;45.00;;;;;;4897540;29;20056;-80
2022/04/21 13:40:36;;;;;;;5.38;1.70;;;19.20;44.90;;;;;;4895925;29;20453;-81
2022/04/21 13:43:03;;;;;;;7.43;1.90;;;19.30;44.90;;;;;;4895841;29;20045;-80
2022/04/21 13:45:50;;;;;;;5.18;1.70;;;19.30;44.90;;;;;;4896225;29;20084;-80
2022/04/21 13:48:17;;;;;;;3.67;1.90;;;19.30;44.90;;;;;;4895640;29;20662;-80
2022/04/21 13:50:44;;;;;;;4.50;1.90;;;19.30;44.80;;;;;;4897741;29;20577;-80
2022/04/21 13:53:10;;;;;;;6.75;1.80;;;19.30;44.80;;;;;;4897987;29;20060;-80